sensor_id;sensor_type;location;lat;lon;timestamp;P1;durP1;ratioP1;P2;durP2;ratioP2
24619;SDS011;12763;55.802;37.404;2022-11-20T00:01:07;19.58;;;9.07;;
24619;SDS011;12763;55.802;37.404;2022-11-20T00:03:38;22.48;;;8.77;;
24619;SDS011;12763;55.802;37.404;2022-11-20T00:06:08;21.58;;;8.10;;
24619;SDS011;12763;55.802;37.404;2022-11-20T00:08:36;18.23;;;9.05;;
24619;SDS011;12763;55.802;37.404;2022-11-20T00:11:03;19.77;;;8.43;;
24619;SDS011;12763;55.802;37.404;2022-11-20T00:13:32;17.50;;;8.60;;
24619;SDS011;12763;55.802;37.404;2022-11-20T00:16:00;18.85;;;8.40;;
24619;SDS011;12763;55.802;37.404;2022-11-20T00:18:28;16.77;;;8.48;;
24619;SDS011;12763;55.802;37.404;2022-11-20T00:21:07;18.52;;;8.65;;
24619;SDS011;12763;55.802;37.404;2022-11-20T00:23:36;16.73;;;8.32;;
24619;SDS011;12763;55.802;37.404;2022-11-20T00:26:07;20.52;;;9.00;;
24619;SDS011;12763;55.802;37.404;2022-11-20T00:28:36;21.60;;;10.05;;
24619;SDS011;12763;55.802;37.404;2022-11-20T00:31:04;17.63;;;8.68;;
24619;SDS011;12763;55.802;37.404;2022-11-20T00:33:34;16.77;;;8.48;;
24619;SDS011;12763;55.802;37.404;2022-11-20T00:36:11;16.42;;;8.48;;
24619;SDS011;12763;55.802;37.404;2022-11-20T00:38:42;20.90;;;11.05;;
24619;SDS011;12763;55.802;37.404;2022-11-20T00:41:12;21.40;;;9.65;;
24619;SDS011;12763;55.802;37.404;2022-11-20T00:43:40;19.15;;;8.95;;
24619;SDS011;12763;55.802;37.404;2022-11-20T00:46:08;17.75;;;8.23;;
24619;SDS011;12763;55.802;37.404;2022-11-20T00:48:42;19.02;;;8.43;;
24619;SDS011;12763;55.802;37.404;2022-11-20T00:51:09;17.00;;;8.45;;
24619;SDS011;12763;55.802;37.404;2022-11-20T00:53:38;20.05;;;9.00;;
24619;SDS011;12763;55.802;37.404;2022-11-20T00:56:11;17.75;;;8.32;;
24619;SDS011;12763;55.802;37.404;2022-11-20T00:58:40;19.63;;;8.90;;
24619;SDS011;12763;55.802;37.404;2022-11-20T01:01:12;18.67;;;9.43;;
24619;SDS011;12763;55.802;37.404;2022-11-20T01:03:53;17.55;;;7.82;;
24619;SDS011;12763;55.802;37.404;2022-11-20T01:06:24;19.23;;;9.13;;
24619;SDS011;12763;55.802;37.404;2022-11-20T01:08:58;16.92;;;8.48;;
24619;SDS011;12763;55.802;37.404;2022-11-20T01:11:29;14.55;;;7.75;;
24619;SDS011;12763;55.802;37.404;2022-11-20T01:14:01;17.38;;;7.82;;
24619;SDS011;12763;55.802;37.404;2022-11-20T01:16:30;17.13;;;7.75;;
24619;SDS011;12763;55.802;37.404;2022-11-20T01:19:00;19.10;;;8.45;;
24619;SDS011;12763;55.802;37.404;2022-11-20T01:21:32;15.95;;;7.20;;
24619;SDS011;12763;55.802;37.404;2022-11-20T01:24:04;15.05;;;6.78;;
24619;SDS011;12763;55.802;37.404;2022-11-20T01:29:06;17.55;;;8.32;;
24619;SDS011;12763;55.802;37.404;2022-11-20T01:31:37;19.77;;;8.02;;
24619;SDS011;12763;55.802;37.404;2022-11-20T01:34:22;15.43;;;7.63;;
24619;SDS011;12763;55.802;37.404;2022-11-20T01:36:50;15.93;;;7.18;;
24619;SDS011;12763;55.802;37.404;2022-11-20T01:39:26;17.05;;;7.72;;
24619;SDS011;12763;55.802;37.404;2022-11-20T01:41:54;14.88;;;7.45;;
24619;SDS011;12763;55.802;37.404;2022-11-20T01:45:01;16.20;;;7.75;;
24619;SDS011;12763;55.802;37.404;2022-11-20T01:47:45;16.40;;;7.45;;
24619;SDS011;12763;55.802;37.404;2022-11-20T01:50:22;15.52;;;7.18;;
24619;SDS011;12763;55.802;37.404;2022-11-20T01:53:03;17.00;;;7.63;;
24619;SDS011;12763;55.802;37.404;2022-11-20T01:55:35;16.30;;;7.32;;
24619;SDS011;12763;55.802;37.404;2022-11-20T01:58:08;19.05;;;7.68;;
24619;SDS011;12763;55.802;37.404;2022-11-20T02:00:34;15.88;;;7.55;;
24619;SDS011;12763;55.802;37.404;2022-11-20T02:03:05;16.42;;;7.70;;
24619;SDS011;12763;55.802;37.404;2022-11-20T02:08:25;16.40;;;7.45;;
24619;SDS011;12763;55.802;37.404;2022-11-20T02:10:53;16.27;;;7.40;;
24619;SDS011;12763;55.802;37.404;2022-11-20T02:13:19;16.55;;;8.25;;
24619;SDS011;12763;55.802;37.404;2022-11-20T02:16:04;12.60;;;5.93;;
24619;SDS011;12763;55.802;37.404;2022-11-20T02:18:34;18.10;;;6.28;;
24619;SDS011;12763;55.802;37.404;2022-11-20T02:21:09;14.73;;;7.32;;
24619;SDS011;12763;55.802;37.404;2022-11-20T02:23:59;19.23;;;6.82;;
24619;SDS011;12763;55.802;37.404;2022-11-20T02:26:26;14.05;;;7.20;;
24619;SDS011;12763;55.802;37.404;2022-11-20T02:28:55;13.05;;;6.53;;
24619;SDS011;12763;55.802;37.404;2022-11-20T02:31:22;13.75;;;7.10;;
24619;SDS011;12763;55.802;37.404;2022-11-20T02:33:53;14.65;;;6.70;;
24619;SDS011;12763;55.802;37.404;2022-11-20T02:36:21;16.98;;;6.32;;
24619;SDS011;12763;55.802;37.404;2022-11-20T02:38:47;15.45;;;7.68;;
24619;SDS011;12763;55.802;37.404;2022-11-20T02:41:15;17.30;;;7.55;;
24619;SDS011;12763;55.802;37.404;2022-11-20T02:43:44;19.25;;;7.10;;
24619;SDS011;12763;55.802;37.404;2022-11-20T02:46:13;13.85;;;7.13;;
24619;SDS011;12763;55.802;37.404;2022-11-20T02:48:43;20.10;;;7.45;;
24619;SDS011;12763;55.802;37.404;2022-11-20T02:51:09;16.33;;;7.13;;
24619;SDS011;12763;55.802;37.404;2022-11-20T02:53:35;17.98;;;7.47;;
24619;SDS011;12763;55.802;37.404;2022-11-20T02:56:05;14.23;;;6.20;;
24619;SDS011;12763;55.802;37.404;2022-11-20T02:58:32;13.65;;;6.97;;
24619;SDS011;12763;55.802;37.404;2022-11-20T03:00:59;12.20;;;6.53;;
24619;SDS011;12763;55.802;37.404;2022-11-20T03:03:32;13.65;;;6.93;;
24619;SDS011;12763;55.802;37.404;2022-11-20T03:05:59;16.88;;;7.32;;
24619;SDS011;12763;55.802;37.404;2022-11-20T03:08:27;14.18;;;6.63;;
24619;SDS011;12763;55.802;37.404;2022-11-20T03:10:54;14.00;;;6.07;;
24619;SDS011;12763;55.802;37.404;2022-11-20T03:13:27;14.40;;;6.80;;
24619;SDS011;12763;55.802;37.404;2022-11-20T03:15:57;13.00;;;6.90;;
24619;SDS011;12763;55.802;37.404;2022-11-20T03:18:23;14.10;;;6.70;;
24619;SDS011;12763;55.802;37.404;2022-11-20T03:20:56;14.23;;;6.45;;
24619;SDS011;12763;55.802;37.404;2022-11-20T03:23:25;11.95;;;6.10;;
24619;SDS011;12763;55.802;37.404;2022-11-20T03:26:06;12.23;;;6.43;;
24619;SDS011;12763;55.802;37.404;2022-11-20T03:28:45;13.43;;;6.78;;
24619;SDS011;12763;55.802;37.404;2022-11-20T03:31:21;15.82;;;6.53;;
24619;SDS011;12763;55.802;37.404;2022-11-20T03:33:51;12.55;;;6.45;;
24619;SDS011;12763;55.802;37.404;2022-11-20T03:36:19;13.05;;;6.45;;
24619;SDS011;12763;55.802;37.404;2022-11-20T03:38:47;16.02;;;6.53;;
24619;SDS011;12763;55.802;37.404;2022-11-20T03:41:20;13.63;;;7.25;;
24619;SDS011;12763;55.802;37.404;2022-11-20T03:46:22;15.18;;;6.63;;
24619;SDS011;12763;55.802;37.404;2022-11-20T03:48:51;12.50;;;6.28;;
24619;SDS011;12763;55.802;37.404;2022-11-20T03:51:25;11.95;;;6.57;;
24619;SDS011;12763;55.802;37.404;2022-11-20T03:53:55;16.73;;;6.75;;
24619;SDS011;12763;55.802;37.404;2022-11-20T03:56:30;11.88;;;6.03;;
24619;SDS011;12763;55.802;37.404;2022-11-20T03:58:59;15.40;;;6.50;;
24619;SDS011;12763;55.802;37.404;2022-11-20T04:01:32;14.60;;;6.10;;
24619;SDS011;12763;55.802;37.404;2022-11-20T04:04:03;16.50;;;6.85;;
24619;SDS011;12763;55.802;37.404;2022-11-20T04:06:34;11.68;;;6.70;;
24619;SDS011;12763;55.802;37.404;2022-11-20T04:09:07;14.65;;;5.95;;
24619;SDS011;12763;55.802;37.404;2022-11-20T04:11:37;13.63;;;7.13;;
24619;SDS011;12763;55.802;37.404;2022-11-20T04:14:17;13.52;;;6.40;;
24619;SDS011;12763;55.802;37.404;2022-11-20T04:16:46;14.82;;;6.78;;
24619;SDS011;12763;55.802;37.404;2022-11-20T04:19:14;15.48;;;6.95;;
24619;SDS011;12763;55.802;37.404;2022-11-20T04:21:47;14.93;;;7.05;;
24619;SDS011;12763;55.802;37.404;2022-11-20T04:24:19;16.38;;;7.25;;
24619;SDS011;12763;55.802;37.404;2022-11-20T04:26:46;19.85;;;6.57;;
24619;SDS011;12763;55.802;37.404;2022-11-20T04:29:16;17.40;;;7.32;;
24619;SDS011;12763;55.802;37.404;2022-11-20T04:31:42;15.75;;;7.05;;
24619;SDS011;12763;55.802;37.404;2022-11-20T04:34:17;15.77;;;6.80;;
24619;SDS011;12763;55.802;37.404;2022-11-20T04:36:43;16.02;;;7.97;;
24619;SDS011;12763;55.802;37.404;2022-11-20T04:39:13;14.18;;;6.85;;
24619;SDS011;12763;55.802;37.404;2022-11-20T04:41:43;15.35;;;6.93;;
24619;SDS011;12763;55.802;37.404;2022-11-20T04:44:23;17.48;;;7.38;;
24619;SDS011;12763;55.802;37.404;2022-11-20T04:46:52;19.85;;;7.45;;
24619;SDS011;12763;55.802;37.404;2022-11-20T04:49:21;13.95;;;7.43;;
24619;SDS011;12763;55.802;37.404;2022-11-20T04:51:53;17.77;;;6.97;;
24619;SDS011;12763;55.802;37.404;2022-11-20T04:54:20;15.07;;;6.85;;
24619;SDS011;12763;55.802;37.404;2022-11-20T04:56:51;23.15;;;7.32;;
24619;SDS011;12763;55.802;37.404;2022-11-20T04:59:18;16.98;;;7.85;;
24619;SDS011;12763;55.802;37.404;2022-11-20T05:01:47;12.32;;;6.97;;
24619;SDS011;12763;55.802;37.404;2022-11-20T05:04:13;13.75;;;6.93;;
24619;SDS011;12763;55.802;37.404;2022-11-20T05:06:39;13.68;;;6.80;;
24619;SDS011;12763;55.802;37.404;2022-11-20T05:09:06;15.60;;;6.38;;
24619;SDS011;12763;55.802;37.404;2022-11-20T05:11:33;20.05;;;7.97;;
24619;SDS011;12763;55.802;37.404;2022-11-20T05:14:00;16.58;;;7.45;;
24619;SDS011;12763;55.802;37.404;2022-11-20T05:16:30;18.02;;;7.63;;
24619;SDS011;12763;55.802;37.404;2022-11-20T05:19:04;15.87;;;7.90;;
24619;SDS011;12763;55.802;37.404;2022-11-20T05:21:30;15.43;;;8.05;;
24619;SDS011;12763;55.802;37.404;2022-11-20T05:24:00;18.38;;;7.70;;
24619;SDS011;12763;55.802;37.404;2022-11-20T05:26:26;16.63;;;8.15;;
24619;SDS011;12763;55.802;37.404;2022-11-20T05:29:02;15.65;;;7.28;;
24619;SDS011;12763;55.802;37.404;2022-11-20T05:31:31;20.35;;;7.85;;
24619;SDS011;12763;55.802;37.404;2022-11-20T05:34:01;17.73;;;7.55;;
24619;SDS011;12763;55.802;37.404;2022-11-20T05:36:33;16.80;;;7.60;;
24619;SDS011;12763;55.802;37.404;2022-11-20T05:39:03;17.63;;;8.18;;
24619;SDS011;12763;55.802;37.404;2022-11-20T05:41:29;17.15;;;8.27;;
24619;SDS011;12763;55.802;37.404;2022-11-20T05:43:58;19.67;;;8.40;;
24619;SDS011;12763;55.802;37.404;2022-11-20T05:46:33;19.83;;;8.85;;
24619;SDS011;12763;55.802;37.404;2022-11-20T05:49:03;22.70;;;8.57;;
24619;SDS011;12763;55.802;37.404;2022-11-20T05:51:41;16.15;;;8.27;;
24619;SDS011;12763;55.802;37.404;2022-11-20T05:54:11;19.70;;;9.00;;
24619;SDS011;12763;55.802;37.404;2022-11-20T05:56:40;19.52;;;8.38;;
24619;SDS011;12763;55.802;37.404;2022-11-20T05:59:09;19.13;;;8.73;;
24619;SDS011;12763;55.802;37.404;2022-11-20T06:01:35;20.77;;;8.70;;
24619;SDS011;12763;55.802;37.404;2022-11-20T06:04:05;22.50;;;9.07;;
24619;SDS011;12763;55.802;37.404;2022-11-20T06:06:32;20.60;;;9.13;;
24619;SDS011;12763;55.802;37.404;2022-11-20T06:08:58;18.63;;;8.35;;
24619;SDS011;12763;55.802;37.404;2022-11-20T06:11:24;22.15;;;8.70;;
24619;SDS011;12763;55.802;37.404;2022-11-20T06:13:57;23.90;;;8.25;;
24619;SDS011;12763;55.802;37.404;2022-11-20T06:16:28;20.90;;;9.00;;
24619;SDS011;12763;55.802;37.404;2022-11-20T06:19:00;26.23;;;8.98;;
24619;SDS011;12763;55.802;37.404;2022-11-20T06:21:29;19.52;;;8.57;;
24619;SDS011;12763;55.802;37.404;2022-11-20T06:23:57;18.52;;;8.70;;
24619;SDS011;12763;55.802;37.404;2022-11-20T06:26:26;24.23;;;9.45;;
24619;SDS011;12763;55.802;37.404;2022-11-20T06:28:54;22.00;;;9.38;;
24619;SDS011;12763;55.802;37.404;2022-11-20T06:31:24;19.50;;;8.52;;
24619;SDS011;12763;55.802;37.404;2022-11-20T06:33:54;22.33;;;9.13;;
24619;SDS011;12763;55.802;37.404;2022-11-20T06:36:22;19.48;;;9.25;;
24619;SDS011;12763;55.802;37.404;2022-11-20T06:38:58;23.10;;;9.43;;
24619;SDS011;12763;55.802;37.404;2022-11-20T06:41:26;22.45;;;9.07;;
24619;SDS011;12763;55.802;37.404;2022-11-20T06:43:54;22.63;;;9.30;;
24619;SDS011;12763;55.802;37.404;2022-11-20T06:46:21;20.33;;;8.73;;
24619;SDS011;12763;55.802;37.404;2022-11-20T06:48:48;22.33;;;10.05;;
24619;SDS011;12763;55.802;37.404;2022-11-20T06:51:17;20.77;;;9.18;;
24619;SDS011;12763;55.802;37.404;2022-11-20T06:53:52;24.95;;;9.40;;
24619;SDS011;12763;55.802;37.404;2022-11-20T06:56:22;24.27;;;8.95;;
24619;SDS011;12763;55.802;37.404;2022-11-20T06:58:48;16.13;;;7.93;;
24619;SDS011;12763;55.802;37.404;2022-11-20T07:01:14;26.90;;;9.98;;
24619;SDS011;12763;55.802;37.404;2022-11-20T07:03:42;19.77;;;9.75;;
24619;SDS011;12763;55.802;37.404;2022-11-20T07:06:08;24.30;;;8.77;;
24619;SDS011;12763;55.802;37.404;2022-11-20T07:08:36;24.35;;;9.98;;
24619;SDS011;12763;55.802;37.404;2022-11-20T07:11:03;19.35;;;9.27;;
24619;SDS011;12763;55.802;37.404;2022-11-20T07:13:31;29.42;;;10.80;;
24619;SDS011;12763;55.802;37.404;2022-11-20T07:15:59;23.33;;;9.15;;
24619;SDS011;12763;55.802;37.404;2022-11-20T07:18:30;22.17;;;9.82;;
24619;SDS011;12763;55.802;37.404;2022-11-20T07:21:03;21.48;;;10.43;;
24619;SDS011;12763;55.802;37.404;2022-11-20T07:23:30;23.83;;;9.15;;
24619;SDS011;12763;55.802;37.404;2022-11-20T07:25:57;20.05;;;10.07;;
24619;SDS011;12763;55.802;37.404;2022-11-20T07:28:23;20.70;;;9.60;;
24619;SDS011;12763;55.802;37.404;2022-11-20T07:30:50;24.52;;;10.55;;
24619;SDS011;12763;55.802;37.404;2022-11-20T07:33:17;21.85;;;9.15;;
24619;SDS011;12763;55.802;37.404;2022-11-20T07:35:44;25.58;;;10.55;;
24619;SDS011;12763;55.802;37.404;2022-11-20T07:38:11;22.63;;;9.90;;
24619;SDS011;12763;55.802;37.404;2022-11-20T07:40:38;24.67;;;10.30;;
24619;SDS011;12763;55.802;37.404;2022-11-20T07:43:04;22.63;;;10.30;;
24619;SDS011;12763;55.802;37.404;2022-11-20T07:45:30;23.17;;;10.55;;
24619;SDS011;12763;55.802;37.404;2022-11-20T07:47:57;20.92;;;10.75;;
24619;SDS011;12763;55.802;37.404;2022-11-20T07:50:23;23.00;;;10.13;;
24619;SDS011;12763;55.802;37.404;2022-11-20T07:52:49;27.92;;;12.15;;
24619;SDS011;12763;55.802;37.404;2022-11-20T07:55:16;24.50;;;11.20;;
24619;SDS011;12763;55.802;37.404;2022-11-20T07:57:42;27.92;;;11.73;;
24619;SDS011;12763;55.802;37.404;2022-11-20T08:00:09;25.98;;;11.45;;
24619;SDS011;12763;55.802;37.404;2022-11-20T08:02:40;21.40;;;9.98;;
24619;SDS011;12763;55.802;37.404;2022-11-20T08:05:08;24.08;;;10.68;;
24619;SDS011;12763;55.802;37.404;2022-11-20T08:07:38;23.65;;;11.02;;
24619;SDS011;12763;55.802;37.404;2022-11-20T08:10:06;26.70;;;11.43;;
24619;SDS011;12763;55.802;37.404;2022-11-20T08:12:34;36.22;;;12.35;;
24619;SDS011;12763;55.802;37.404;2022-11-20T08:15:19;31.98;;;11.68;;
24619;SDS011;12763;55.802;37.404;2022-11-20T08:17:45;22.65;;;10.25;;
24619;SDS011;12763;55.802;37.404;2022-11-20T08:20:11;25.95;;;11.82;;
24619;SDS011;12763;55.802;37.404;2022-11-20T08:22:43;25.55;;;11.15;;
24619;SDS011;12763;55.802;37.404;2022-11-20T08:25:10;24.20;;;10.90;;
24619;SDS011;12763;55.802;37.404;2022-11-20T08:27:38;33.40;;;12.07;;
24619;SDS011;12763;55.802;37.404;2022-11-20T08:30:07;20.90;;;10.73;;
24619;SDS011;12763;55.802;37.404;2022-11-20T08:32:34;29.58;;;11.85;;
24619;SDS011;12763;55.802;37.404;2022-11-20T08:35:04;24.20;;;12.45;;
24619;SDS011;12763;55.802;37.404;2022-11-20T08:37:31;29.90;;;12.35;;
24619;SDS011;12763;55.802;37.404;2022-11-20T08:39:57;25.30;;;11.40;;
24619;SDS011;12763;55.802;37.404;2022-11-20T08:42:23;37.75;;;13.75;;
24619;SDS011;12763;55.802;37.404;2022-11-20T08:44:50;27.73;;;13.20;;
24619;SDS011;12763;55.802;37.404;2022-11-20T08:47:16;30.17;;;13.75;;
24619;SDS011;12763;55.802;37.404;2022-11-20T08:49:43;26.42;;;12.68;;
24619;SDS011;12763;55.802;37.404;2022-11-20T08:52:09;38.50;;;13.90;;
24619;SDS011;12763;55.802;37.404;2022-11-20T08:54:35;37.83;;;14.88;;
24619;SDS011;12763;55.802;37.404;2022-11-20T08:57:02;34.97;;;13.05;;
24619;SDS011;12763;55.802;37.404;2022-11-20T08:59:28;34.03;;;13.48;;
24619;SDS011;12763;55.802;37.404;2022-11-20T09:01:55;39.03;;;14.23;;
24619;SDS011;12763;55.802;37.404;2022-11-20T09:04:27;36.20;;;13.93;;
24619;SDS011;12763;55.802;37.404;2022-11-20T09:06:56;31.00;;;12.93;;
24619;SDS011;12763;55.802;37.404;2022-11-20T09:09:22;37.00;;;14.48;;
24619;SDS011;12763;55.802;37.404;2022-11-20T09:11:48;35.88;;;15.50;;
24619;SDS011;12763;55.802;37.404;2022-11-20T09:14:16;41.00;;;15.38;;
24619;SDS011;12763;55.802;37.404;2022-11-20T09:16:44;34.00;;;13.57;;
24619;SDS011;12763;55.802;37.404;2022-11-20T09:19:11;35.28;;;15.10;;
24619;SDS011;12763;55.802;37.404;2022-11-20T09:21:37;32.63;;;14.40;;
24619;SDS011;12763;55.802;37.404;2022-11-20T09:24:04;36.40;;;14.57;;
24619;SDS011;12763;55.802;37.404;2022-11-20T09:26:33;37.65;;;14.32;;
24619;SDS011;12763;55.802;37.404;2022-11-20T09:29:00;39.15;;;16.15;;
24619;SDS011;12763;55.802;37.404;2022-11-20T09:31:26;40.35;;;13.77;;
24619;SDS011;12763;55.802;37.404;2022-11-20T09:33:52;38.38;;;15.77;;
24619;SDS011;12763;55.802;37.404;2022-11-20T09:36:19;44.20;;;15.63;;
24619;SDS011;12763;55.802;37.404;2022-11-20T09:38:47;37.42;;;14.77;;
24619;SDS011;12763;55.802;37.404;2022-11-20T09:44:28;38.40;;;13.73;;
24619;SDS011;12763;55.802;37.404;2022-11-20T09:47:01;38.40;;;13.85;;
24619;SDS011;12763;55.802;37.404;2022-11-20T09:52:22;37.50;;;15.23;;
24619;SDS011;12763;55.802;37.404;2022-11-20T09:54:58;34.60;;;14.23;;
24619;SDS011;12763;55.802;37.404;2022-11-20T09:57:32;34.95;;;13.82;;
24619;SDS011;12763;55.802;37.404;2022-11-20T10:00:05;40.90;;;14.23;;
24619;SDS011;12763;55.802;37.404;2022-11-20T10:02:47;34.72;;;13.68;;
24619;SDS011;12763;55.802;37.404;2022-11-20T10:05:28;35.63;;;14.27;;
24619;SDS011;12763;55.802;37.404;2022-11-20T10:08:43;39.13;;;15.57;;
24619;SDS011;12763;55.802;37.404;2022-11-20T10:11:35;33.13;;;15.35;;
24619;SDS011;12763;55.802;37.404;2022-11-20T10:22:04;33.53;;;13.90;;
24619;SDS011;12763;55.802;37.404;2022-11-20T10:30:38;39.72;;;13.63;;
24619;SDS011;12763;55.802;37.404;2022-11-20T10:41:49;38.15;;;14.45;;
24619;SDS011;12763;55.802;37.404;2022-11-20T10:44:22;40.75;;;14.57;;
24619;SDS011;12763;55.802;37.404;2022-11-20T10:47:17;39.08;;;13.98;;
24619;SDS011;12763;55.802;37.404;2022-11-20T10:49:51;38.33;;;12.90;;
24619;SDS011;12763;55.802;37.404;2022-11-20T10:57:52;36.72;;;12.07;;
24619;SDS011;12763;55.802;37.404;2022-11-20T11:00:20;41.38;;;14.40;;
24619;SDS011;12763;55.802;37.404;2022-11-20T11:02:47;34.53;;;13.15;;
24619;SDS011;12763;55.802;37.404;2022-11-20T11:08:15;29.77;;;12.40;;
24619;SDS011;12763;55.802;37.404;2022-11-20T11:10:53;30.58;;;11.85;;
24619;SDS011;12763;55.802;37.404;2022-11-20T11:13:26;25.60;;;10.48;;
24619;SDS011;12763;55.802;37.404;2022-11-20T11:15:58;27.70;;;11.68;;
24619;SDS011;12763;55.802;37.404;2022-11-20T11:18:28;29.20;;;10.20;;
24619;SDS011;12763;55.802;37.404;2022-11-20T11:20:57;20.83;;;8.80;;
24619;SDS011;12763;55.802;37.404;2022-11-20T11:23:30;24.38;;;9.20;;
24619;SDS011;12763;55.802;37.404;2022-11-20T11:26:00;25.60;;;10.45;;
24619;SDS011;12763;55.802;37.404;2022-11-20T11:28:28;22.15;;;9.02;;
24619;SDS011;12763;55.802;37.404;2022-11-20T11:30:54;23.42;;;9.65;;
24619;SDS011;12763;55.802;37.404;2022-11-20T11:33:22;26.67;;;11.02;;
24619;SDS011;12763;55.802;37.404;2022-11-20T11:35:54;29.98;;;10.07;;
24619;SDS011;12763;55.802;37.404;2022-11-20T11:38:34;24.10;;;10.00;;
24619;SDS011;12763;55.802;37.404;2022-11-20T11:41:16;28.27;;;10.93;;
24619;SDS011;12763;55.802;37.404;2022-11-20T11:43:52;19.92;;;9.48;;
24619;SDS011;12763;55.802;37.404;2022-11-20T11:46:39;17.80;;;9.27;;
24619;SDS011;12763;55.802;37.404;2022-11-20T11:49:19;20.98;;;8.82;;
24619;SDS011;12763;55.802;37.404;2022-11-20T11:54:22;18.33;;;7.22;;
24619;SDS011;12763;55.802;37.404;2022-11-20T11:56:52;17.48;;;9.27;;
24619;SDS011;12763;55.802;37.404;2022-11-20T11:59:27;22.45;;;8.68;;
24619;SDS011;12763;55.802;37.404;2022-11-20T12:02:11;20.48;;;9.40;;
24619;SDS011;12763;55.802;37.404;2022-11-20T12:04:46;26.33;;;10.43;;
24619;SDS011;12763;55.802;37.404;2022-11-20T12:07:36;23.05;;;10.18;;
24619;SDS011;12763;55.802;37.404;2022-11-20T12:10:12;25.55;;;10.75;;
24619;SDS011;12763;55.802;37.404;2022-11-20T12:12:45;22.92;;;9.80;;
24619;SDS011;12763;55.802;37.404;2022-11-20T12:15:23;23.27;;;10.23;;
24619;SDS011;12763;55.802;37.404;2022-11-20T12:17:54;25.08;;;9.68;;
24619;SDS011;12763;55.802;37.404;2022-11-20T12:20:21;19.15;;;9.27;;
24619;SDS011;12763;55.802;37.404;2022-11-20T12:23:01;20.10;;;9.35;;
24619;SDS011;12763;55.802;37.404;2022-11-20T12:25:30;19.42;;;8.68;;
24619;SDS011;12763;55.802;37.404;2022-11-20T12:28:17;21.95;;;9.77;;
24619;SDS011;12763;55.802;37.404;2022-11-20T12:30:54;18.13;;;8.68;;
24619;SDS011;12763;55.802;37.404;2022-11-20T12:41:47;20.38;;;9.52;;
24619;SDS011;12763;55.802;37.404;2022-11-20T12:50:23;22.20;;;9.35;;
24619;SDS011;12763;55.802;37.404;2022-11-20T13:01:00;24.88;;;10.07;;
24619;SDS011;12763;55.802;37.404;2022-11-20T13:03:55;21.45;;;8.88;;
24619;SDS011;12763;55.802;37.404;2022-11-20T13:06:26;23.83;;;10.30;;
24619;SDS011;12763;55.802;37.404;2022-11-20T13:08:54;21.10;;;9.70;;
24619;SDS011;12763;55.802;37.404;2022-11-20T13:11:32;25.48;;;9.95;;
24619;SDS011;12763;55.802;37.404;2022-11-20T13:17:15;27.48;;;10.55;;
24619;SDS011;12763;55.802;37.404;2022-11-20T13:19:52;25.27;;;10.75;;
24619;SDS011;12763;55.802;37.404;2022-11-20T13:22:27;24.02;;;10.50;;
24619;SDS011;12763;55.802;37.404;2022-11-20T13:24:55;22.98;;;9.98;;
24619;SDS011;12763;55.802;37.404;2022-11-20T13:27:22;24.92;;;10.40;;
24619;SDS011;12763;55.802;37.404;2022-11-20T13:29:59;20.20;;;9.77;;
24619;SDS011;12763;55.802;37.404;2022-11-20T13:32:50;18.08;;;9.20;;
24619;SDS011;12763;55.802;37.404;2022-11-20T13:35:41;25.98;;;10.38;;
24619;SDS011;12763;55.802;37.404;2022-11-20T13:38:09;18.75;;;9.20;;
24619;SDS011;12763;55.802;37.404;2022-11-20T13:40:39;33.63;;;10.45;;
24619;SDS011;12763;55.802;37.404;2022-11-20T13:46:02;22.88;;;10.45;;
24619;SDS011;12763;55.802;37.404;2022-11-20T13:48:40;23.98;;;9.27;;
24619;SDS011;12763;55.802;37.404;2022-11-20T14:02:15;28.85;;;12.25;;
24619;SDS011;12763;55.802;37.404;2022-11-20T14:04:47;21.88;;;10.60;;
24619;SDS011;12763;55.802;37.404;2022-11-20T14:07:15;22.35;;;10.63;;
24619;SDS011;12763;55.802;37.404;2022-11-20T14:09:51;20.33;;;10.23;;
24619;SDS011;12763;55.802;37.404;2022-11-20T14:12:20;22.40;;;9.90;;
24619;SDS011;12763;55.802;37.404;2022-11-20T14:14:51;26.70;;;11.10;;
24619;SDS011;12763;55.802;37.404;2022-11-20T14:17:19;28.20;;;10.45;;
24619;SDS011;12763;55.802;37.404;2022-11-20T14:19:49;21.77;;;10.45;;
24619;SDS011;12763;55.802;37.404;2022-11-20T14:22:19;27.00;;;10.95;;
24619;SDS011;12763;55.802;37.404;2022-11-20T14:24:48;26.73;;;11.30;;
24619;SDS011;12763;55.802;37.404;2022-11-20T14:27:18;27.27;;;12.02;;
24619;SDS011;12763;55.802;37.404;2022-11-20T14:29:50;27.70;;;10.55;;
24619;SDS011;12763;55.802;37.404;2022-11-20T14:32:23;24.10;;;10.80;;
24619;SDS011;12763;55.802;37.404;2022-11-20T14:35:02;23.67;;;10.52;;
24619;SDS011;12763;55.802;37.404;2022-11-20T14:37:38;36.30;;;11.07;;
24619;SDS011;12763;55.802;37.404;2022-11-20T14:43:04;26.60;;;10.52;;
24619;SDS011;12763;55.802;37.404;2022-11-20T14:48:35;30.63;;;11.45;;
24619;SDS011;12763;55.802;37.404;2022-11-20T14:51:05;25.83;;;11.18;;
24619;SDS011;12763;55.802;37.404;2022-11-20T14:53:31;28.20;;;10.52;;
24619;SDS011;12763;55.802;37.404;2022-11-20T14:55:58;24.65;;;9.85;;
24619;SDS011;12763;55.802;37.404;2022-11-20T14:58:27;22.48;;;10.20;;
24619;SDS011;12763;55.802;37.404;2022-11-20T15:00:59;25.92;;;11.05;;
24619;SDS011;12763;55.802;37.404;2022-11-20T15:03:34;21.70;;;10.18;;
24619;SDS011;12763;55.802;37.404;2022-11-20T15:06:05;24.45;;;11.23;;
24619;SDS011;12763;55.802;37.404;2022-11-20T15:08:33;25.40;;;10.20;;
24619;SDS011;12763;55.802;37.404;2022-11-20T15:11:03;21.75;;;10.02;;
24619;SDS011;12763;55.802;37.404;2022-11-20T15:13:44;23.27;;;9.95;;
24619;SDS011;12763;55.802;37.404;2022-11-20T15:16:17;28.77;;;11.00;;
24619;SDS011;12763;55.802;37.404;2022-11-20T15:18:46;23.50;;;10.70;;
24619;SDS011;12763;55.802;37.404;2022-11-20T15:21:13;30.33;;;11.30;;
24619;SDS011;12763;55.802;37.404;2022-11-20T15:23:42;21.52;;;11.30;;
24619;SDS011;12763;55.802;37.404;2022-11-20T15:26:10;26.42;;;10.73;;
24619;SDS011;12763;55.802;37.404;2022-11-20T15:28:44;31.25;;;11.52;;
24619;SDS011;12763;55.802;37.404;2022-11-20T15:31:17;24.02;;;11.02;;
24619;SDS011;12763;55.802;37.404;2022-11-20T15:33:45;25.27;;;10.77;;
24619;SDS011;12763;55.802;37.404;2022-11-20T15:36:12;28.40;;;10.70;;
24619;SDS011;12763;55.802;37.404;2022-11-20T15:38:38;26.20;;;11.40;;
24619;SDS011;12763;55.802;37.404;2022-11-20T15:41:07;27.75;;;12.68;;
24619;SDS011;12763;55.802;37.404;2022-11-20T15:43:33;27.35;;;10.85;;
24619;SDS011;12763;55.802;37.404;2022-11-20T15:46:00;24.77;;;10.98;;
24619;SDS011;12763;55.802;37.404;2022-11-20T15:48:36;28.90;;;10.88;;
24619;SDS011;12763;55.802;37.404;2022-11-20T15:53:35;25.42;;;10.85;;
24619;SDS011;12763;55.802;37.404;2022-11-20T15:56:08;30.70;;;11.65;;
24619;SDS011;12763;55.802;37.404;2022-11-20T15:58:37;25.08;;;11.65;;
24619;SDS011;12763;55.802;37.404;2022-11-20T16:01:03;26.70;;;11.90;;
24619;SDS011;12763;55.802;37.404;2022-11-20T16:03:39;26.08;;;10.98;;
24619;SDS011;12763;55.802;37.404;2022-11-20T16:06:06;24.73;;;10.32;;
24619;SDS011;12763;55.802;37.404;2022-11-20T16:08:33;22.90;;;10.30;;
24619;SDS011;12763;55.802;37.404;2022-11-20T16:11:00;27.83;;;11.50;;
24619;SDS011;12763;55.802;37.404;2022-11-20T16:13:30;30.58;;;12.38;;